Other Surface Observations
Issued by NWS Great Falls, MT

Home | Current Version | Previous Version | Text Only | Print | Product List | Glossary On
Versions: 1 2 3 4 5 6 7 8 9 10 11 12 13 14 15 16 17 18 19 20 21 22 23 24 25 26 27 28 29 30 31 32 33 34 35 36 37 38 39 40 41 42 43 44 45 46 47 48 49 50
000
SXUS55 KTFX 282229
OSOTFX
AREA AWOS OBSERVATIONS
NATIONAL WEATHER SERVICE GREAT FALLS MT
0429 PM MDT THU JUL 28 2016

METAR KPWD 282230Z AUTO 15003KT 6SM 24/11 A3013 RMK PLENTYWOOD
METAR K1S3 282230Z AUTO 34004KT 10SM 26/12 A3011 RMK FORSYTH
METAR KS71 282230Z AUTO 07008KT 10SM 26/12 A3010 RMK CHINOOK
METAR K38S 282230Z AUTO 33006KT 10SM 29/06 A3017 RMK DEER LODGE
METAR K3U3 282230Z AUTO 03005KT 10SM 28/08 A3016 RMK ANACONDA
METAR K6S5 282230Z AUTO 00000KT 10SM 31/08 A3009 RMK HAMILTON
METAR KS59 282230Z AUTO 29004KT 10SM 32/08 A3005 RMK LIBBY
METAR K88M 282230Z AUTO 29004KT 10SM 29/09 A3006 RMK EUREKA



USA.gov is the U.S. government's official web portal to all federal, state and local government web resources and services.